createdAt,value
2023-05-30T00:00:45.238Z,1.40
2023-05-30T00:01:45.139Z,1.20
2023-05-30T00:02:45.472Z,0.90
2023-05-30T00:03:45.258Z,1.50
2023-05-30T00:04:45.107Z,1.10
2023-05-30T00:05:45.110Z,1.50
2023-05-30T00:06:45.096Z,1.30
2023-05-30T00:07:45.066Z,1.30
2023-05-30T00:08:45.168Z,1.20
2023-05-30T00:09:45.047Z,1.10
2023-05-30T00:10:45.024Z,1.10
2023-05-30T00:11:45.051Z,1.10
2023-05-30T00:12:45.039Z,1.10
2023-05-30T00:13:44.983Z,1.10
2023-05-30T00:14:44.975Z,1.10
2023-05-30T00:15:45.024Z,1.10
2023-05-30T00:16:44.957Z,1.50
2023-05-30T00:17:44.980Z,0.90
2023-05-30T00:18:44.935Z,1.20
2023-05-30T00:19:44.906Z,1.40
2023-05-30T00:20:44.921Z,1.10
2023-05-30T00:21:44.892Z,1.30
2023-05-30T00:22:44.890Z,1.00
2023-05-30T00:23:44.854Z,1.10
2023-05-30T00:24:44.849Z,1.30
2023-05-30T00:25:44.823Z,1.40
2023-05-30T00:26:44.809Z,2.10
2023-05-30T00:27:44.860Z,1.30
2023-05-30T00:28:44.917Z,1.10
2023-05-30T00:29:44.762Z,1.40
2023-05-30T00:30:44.759Z,1.60
2023-05-30T00:31:44.779Z,1.50
2023-05-30T00:32:44.758Z,1.10
2023-05-30T00:33:44.769Z,1.00
2023-05-30T00:34:44.703Z,1.30
2023-05-30T00:35:44.693Z,1.10
2023-05-30T00:36:44.676Z,1.70
2023-05-30T00:37:44.687Z,1.10
2023-05-30T00:38:44.656Z,1.30
2023-05-30T00:39:44.696Z,1.10
2023-05-30T00:40:45.519Z,1.40
2023-05-30T00:41:44.615Z,1.40
2023-05-30T00:42:44.606Z,1.20
2023-05-30T00:43:44.589Z,1.40
2023-05-30T00:44:44.577Z,1.10
2023-05-30T00:45:44.614Z,1.10
2023-05-30T00:46:44.545Z,1.40
2023-05-30T00:47:44.621Z,1.80
2023-05-30T00:48:44.543Z,0.90
2023-05-30T00:49:44.496Z,1.40
2023-05-30T00:50:44.482Z,1.30
2023-05-30T00:51:44.493Z,1.30
2023-05-30T00:52:44.469Z,1.40
2023-05-30T00:53:44.465Z,1.20
2023-05-30T00:54:44.454Z,1.20
2023-05-30T00:55:44.444Z,1.30
2023-05-30T00:56:44.410Z,1.40
2023-05-30T00:57:44.419Z,1.60
2023-05-30T00:58:44.404Z,1.70
2023-05-30T00:59:44.376Z,1.30
2023-05-30T01:00:44.358Z,1.10
2023-05-30T01:01:44.418Z,1.20
2023-05-30T01:02:44.411Z,1.10
2023-05-30T01:03:44.417Z,1.30
2023-05-30T01:04:44.329Z,1.70
2023-05-30T01:05:44.324Z,1.10
2023-05-30T01:06:44.285Z,1.40
2023-05-30T01:07:44.269Z,1.30
2023-05-30T01:08:44.279Z,1.60
2023-05-30T01:09:44.305Z,1.60
2023-05-30T01:10:44.224Z,1.50
2023-05-30T01:11:44.222Z,1.40
2023-05-30T01:12:44.305Z,1.10
2023-05-30T01:13:44.191Z,1.30
2023-05-30T01:14:44.179Z,1.20
2023-05-30T01:15:44.209Z,1.30
2023-05-30T01:16:44.220Z,1.50
2023-05-30T01:17:44.219Z,1.40
2023-05-30T01:18:44.122Z,1.40
2023-05-30T01:19:44.107Z,1.40
2023-05-30T01:20:44.146Z,1.20
2023-05-30T01:21:44.132Z,1.40
2023-05-30T01:22:44.067Z,1.20
2023-05-30T01:23:44.056Z,1.10
2023-05-30T01:24:44.083Z,1.50
2023-05-30T01:25:44.038Z,1.20
2023-05-30T01:26:44.017Z,1.30
2023-05-30T01:27:44.022Z,1.30
2023-05-30T01:28:43.982Z,1.50
2023-05-30T01:29:43.988Z,1.30
2023-05-30T01:30:43.962Z,1.20
2023-05-30T01:31:44.045Z,1.20
2023-05-30T01:32:44.011Z,1.50
2023-05-30T01:33:43.944Z,1.30
2023-05-30T01:34:43.904Z,1.30
2023-05-30T01:35:43.900Z,1.30
2023-05-30T01:36:43.893Z,1.20
2023-05-30T01:37:43.872Z,1.40
2023-05-30T01:38:43.893Z,1.20
2023-05-30T01:39:43.851Z,1.20
2023-05-30T01:40:43.844Z,1.40
2023-05-30T01:41:43.813Z,1.70
2023-05-30T01:42:43.800Z,1.30
2023-05-30T01:43:43.792Z,1.00
2023-05-30T01:44:43.824Z,1.20
2023-05-30T01:45:43.812Z,1.60
2023-05-30T01:46:43.755Z,1.30
2023-05-30T01:47:43.783Z,1.50
2023-05-30T01:48:43.725Z,1.30
2023-05-30T01:49:43.712Z,1.50
2023-05-30T01:50:43.720Z,1.40
2023-05-30T01:51:43.684Z,1.40
2023-05-30T01:52:43.670Z,1.40
2023-05-30T01:53:43.660Z,1.30
2023-05-30T01:54:43.660Z,1.20
2023-05-30T01:55:43.726Z,1.20
2023-05-30T01:56:43.625Z,1.60
2023-05-30T01:57:43.606Z,1.50
2023-05-30T01:58:43.603Z,1.50
2023-05-30T01:59:43.580Z,1.20
2023-05-30T02:00:43.584Z,1.50
2023-05-30T02:01:43.649Z,1.20
2023-05-30T02:02:43.556Z,1.20
2023-05-30T02:03:43.562Z,1.70
2023-05-30T02:04:43.516Z,1.40
2023-05-30T02:05:43.568Z,1.50
2023-05-30T02:06:43.559Z,1.60
2023-05-30T02:07:43.498Z,1.50
2023-05-30T02:08:43.459Z,1.30
2023-05-30T02:09:43.456Z,1.60
2023-05-30T02:10:43.441Z,1.20
2023-05-30T02:11:43.574Z,1.30
2023-05-30T02:12:43.425Z,1.80
2023-05-30T02:13:43.408Z,1.40
2023-05-30T02:14:43.394Z,1.30
2023-05-30T02:15:43.378Z,1.10
2023-05-30T02:16:43.433Z,1.50
2023-05-30T02:17:43.403Z,1.80
2023-05-30T02:18:43.351Z,1.50
2023-05-30T02:19:43.352Z,1.60
2023-05-30T02:20:43.378Z,1.40
2023-05-30T02:21:43.310Z,1.30
2023-05-30T02:22:43.350Z,1.60
2023-05-30T02:23:43.291Z,1.40
2023-05-30T02:24:43.282Z,1.40
2023-05-30T02:25:43.237Z,1.30
2023-05-30T02:26:43.264Z,2.00
2023-05-30T02:27:43.216Z,1.50
2023-05-30T02:28:43.211Z,1.20
2023-05-30T02:29:43.238Z,1.30
2023-05-30T02:30:43.177Z,1.30
2023-05-30T02:31:43.218Z,1.60
2023-05-30T02:32:43.176Z,1.20
2023-05-30T02:33:43.192Z,1.70
2023-05-30T02:34:43.123Z,1.30
2023-05-30T02:35:43.127Z,1.70
2023-05-30T02:36:43.098Z,1.60
2023-05-30T02:37:43.102Z,1.70
2023-05-30T02:38:43.079Z,1.90
2023-05-30T02:39:43.060Z,1.30
2023-05-30T02:40:43.045Z,1.60
2023-05-30T02:41:43.070Z,1.60
2023-05-30T02:42:43.023Z,1.80
2023-05-30T02:43:43.015Z,1.50
2023-05-30T02:44:43.001Z,1.60
2023-05-30T02:45:43.008Z,1.50
2023-05-30T02:46:43.039Z,1.60
2023-05-30T02:47:43.023Z,1.90
2023-05-30T02:48:42.943Z,1.70
2023-05-30T02:49:42.932Z,1.60
2023-05-30T02:50:42.946Z,1.40
2023-05-30T02:51:42.964Z,1.50
2023-05-30T02:52:42.905Z,1.80
2023-05-30T02:53:42.919Z,1.60
2023-05-30T02:54:42.878Z,1.90
2023-05-30T02:55:42.909Z,1.80
2023-05-30T02:56:42.856Z,1.50
2023-05-30T02:57:42.837Z,2.00
2023-05-30T02:58:42.812Z,1.80
2023-05-30T02:59:42.835Z,1.80
2023-05-30T03:00:42.793Z,1.50
2023-05-30T03:01:42.831Z,1.60
2023-05-30T03:02:42.832Z,1.60
2023-05-30T03:03:42.802Z,1.90
2023-05-30T03:04:42.774Z,1.40
2023-05-30T03:05:42.715Z,2.50
2023-05-30T03:06:42.725Z,1.60
2023-05-30T03:07:42.700Z,1.90
2023-05-30T03:08:42.737Z,1.70
2023-05-30T03:09:42.674Z,1.80
2023-05-30T03:10:42.720Z,1.90
2023-05-30T03:11:42.682Z,2.00
2023-05-30T03:12:42.636Z,1.70
2023-05-30T03:13:42.634Z,2.60
2023-05-30T03:14:42.681Z,1.70
2023-05-30T03:15:42.616Z,1.80
2023-05-30T03:16:42.774Z,1.60
2023-05-30T03:17:42.581Z,2.50
2023-05-30T03:18:42.557Z,2.00
2023-05-30T03:19:42.546Z,1.80
2023-05-30T03:20:42.562Z,2.30
2023-05-30T03:21:42.529Z,1.90
2023-05-30T03:22:42.512Z,2.50
2023-05-30T03:23:42.504Z,2.00
2023-05-30T03:24:42.479Z,2.10
2023-05-30T03:25:42.464Z,1.90
2023-05-30T03:26:42.446Z,2.30
2023-05-30T03:27:42.474Z,2.40
2023-05-30T03:28:42.417Z,2.40
2023-05-30T03:29:42.399Z,2.20
2023-05-30T03:30:42.388Z,2.30
2023-05-30T03:31:42.432Z,2.20
2023-05-30T03:32:42.398Z,2.30
2023-05-30T03:33:42.360Z,2.20
2023-05-30T03:34:42.340Z,1.90
2023-05-30T03:35:42.332Z,2.10
2023-05-30T03:36:42.329Z,2.40
2023-05-30T03:37:42.306Z,2.30
2023-05-30T03:38:42.308Z,2.50
2023-05-30T03:39:42.278Z,2.20
2023-05-30T03:40:42.255Z,2.70
2023-05-30T03:41:42.431Z,2.30
2023-05-30T03:42:44.544Z,2.40
2023-05-30T03:43:42.222Z,2.20
2023-05-30T03:44:42.241Z,2.20
2023-05-30T03:45:42.240Z,2.10
2023-05-30T03:46:42.185Z,2.60
2023-05-30T03:47:42.194Z,2.50
2023-05-30T03:48:42.166Z,2.80
2023-05-30T03:49:42.139Z,3.30
2023-05-30T03:50:42.146Z,2.80
2023-05-30T03:51:42.113Z,2.30
2023-05-30T03:52:42.109Z,2.40
2023-05-30T03:53:42.101Z,2.80
2023-05-30T03:54:42.072Z,2.60
2023-05-30T03:55:42.089Z,2.50
2023-05-30T03:56:42.070Z,2.80
2023-05-30T03:57:42.030Z,2.60
2023-05-30T03:58:42.032Z,2.80
2023-05-30T03:59:42.033Z,2.60
2023-05-30T04:00:42.009Z,2.80
2023-05-30T04:01:42.041Z,3.20
2023-05-30T04:02:42.054Z,3.20
2023-05-30T04:03:42.021Z,3.90
2023-05-30T04:04:41.937Z,4.30
2023-05-30T04:05:41.962Z,4.60
2023-05-30T04:06:41.918Z,4.10
2023-05-30T04:07:41.924Z,4.50
2023-05-30T04:08:41.889Z,4.40
2023-05-30T04:09:41.867Z,4.50
2023-05-30T04:10:42.573Z,3.90
2023-05-30T04:11:41.848Z,4.20
2023-05-30T04:12:41.886Z,3.70
2023-05-30T04:13:41.850Z,3.90
2023-05-30T04:14:41.818Z,3.90
2023-05-30T04:15:41.799Z,4.70
2023-05-30T04:16:41.789Z,4.60
2023-05-30T04:17:41.836Z,4.60
2023-05-30T04:18:41.766Z,4.30
2023-05-30T04:19:41.803Z,4.20
2023-05-30T04:20:41.791Z,4.10
2023-05-30T04:21:41.748Z,4.40
2023-05-30T04:22:41.713Z,4.40
2023-05-30T04:23:41.695Z,4.70
2023-05-30T04:24:41.721Z,4.10
2023-05-30T04:25:41.688Z,4.20
2023-05-30T04:26:41.668Z,4.50
2023-05-30T04:27:50.130Z,3.70
2023-05-30T04:28:42.633Z,3.90
2023-05-30T04:29:41.619Z,4.20
2023-05-30T04:30:41.637Z,4.10
2023-05-30T04:31:41.646Z,4.30
2023-05-30T04:32:41.589Z,3.50
2023-05-30T04:33:41.562Z,4.10
2023-05-30T04:34:41.579Z,3.90
2023-05-30T04:35:41.539Z,3.70
2023-05-30T04:36:41.535Z,3.90
2023-05-30T04:37:41.709Z,4.20
2023-05-30T04:38:41.497Z,4.20
2023-05-30T04:39:41.498Z,4.20
2023-05-30T04:40:41.481Z,4.20
2023-05-30T04:41:41.495Z,3.70
2023-05-30T04:42:41.438Z,5.40
2023-05-30T04:43:41.471Z,4.40
2023-05-30T04:44:41.418Z,4.40
2023-05-30T04:45:41.407Z,4.30
2023-05-30T04:46:41.413Z,5.10
2023-05-30T04:47:41.399Z,4.40
2023-05-30T04:48:41.387Z,4.70
2023-05-30T04:49:41.359Z,4.50
2023-05-30T04:50:41.336Z,4.40
2023-05-30T04:51:41.321Z,4.20
2023-05-30T04:52:41.309Z,4.10
2023-05-30T04:53:41.309Z,4.50
2023-05-30T04:54:41.316Z,4.40
2023-05-30T04:55:41.263Z,4.20
2023-05-30T04:56:41.264Z,4.40
2023-05-30T04:57:41.293Z,5.20
2023-05-30T04:58:41.234Z,5.00
2023-05-30T04:59:41.244Z,4.90
2023-05-30T05:00:41.202Z,4.80
2023-05-30T05:01:41.223Z,4.50
2023-05-30T05:02:41.326Z,4.00
2023-05-30T05:03:41.287Z,4.20
2023-05-30T05:04:41.150Z,4.10
2023-05-30T05:05:41.224Z,4.20
2023-05-30T05:06:41.114Z,4.10
2023-05-30T05:07:42.479Z,3.90
2023-05-30T05:08:41.147Z,3.90
2023-05-30T05:09:41.076Z,4.20
2023-05-30T05:10:41.086Z,3.80
2023-05-30T05:11:41.080Z,3.20
2023-05-30T05:12:41.055Z,3.20
2023-05-30T05:13:41.052Z,3.80
2023-05-30T05:14:41.014Z,3.10
2023-05-30T05:15:41.067Z,3.60
2023-05-30T05:16:41.021Z,3.70
2023-05-30T05:17:40.996Z,3.90
2023-05-30T05:18:40.985Z,3.90
2023-05-30T05:19:40.964Z,3.70
2023-05-30T05:20:40.992Z,3.40
2023-05-30T05:21:40.933Z,3.50
2023-05-30T05:22:41.267Z,3.70
2023-05-30T05:23:40.936Z,3.70
2023-05-30T05:24:40.894Z,3.70
2023-05-30T05:25:40.875Z,3.70
2023-05-30T05:26:40.854Z,3.70
2023-05-30T05:27:40.901Z,3.70
2023-05-30T05:28:40.869Z,3.80
2023-05-30T05:29:40.841Z,3.90
2023-05-30T05:30:40.805Z,3.90
2023-05-30T05:31:40.876Z,3.80
2023-05-30T05:32:40.869Z,3.70
2023-05-30T05:33:40.771Z,3.70
2023-05-30T05:34:40.790Z,3.90
2023-05-30T05:35:40.751Z,3.90
2023-05-30T05:36:40.731Z,4.10
2023-05-30T05:37:40.714Z,4.10
2023-05-30T05:38:40.710Z,4.00
2023-05-30T05:39:40.716Z,3.90
2023-05-30T05:40:40.719Z,3.90
2023-05-30T05:41:40.679Z,3.90
2023-05-30T05:42:40.710Z,4.40
2023-05-30T05:43:40.639Z,3.50
2023-05-30T05:44:40.627Z,4.00
2023-05-30T05:45:40.608Z,3.90
2023-05-30T05:46:40.909Z,4.00
2023-05-30T05:47:40.640Z,3.90
2023-05-30T05:48:40.586Z,4.10
2023-05-30T05:49:40.561Z,4.40
2023-05-30T05:50:40.560Z,3.70
2023-05-30T05:51:40.553Z,4.10
2023-05-30T05:52:40.541Z,4.30
2023-05-30T05:53:40.512Z,4.60
2023-05-30T05:54:40.531Z,4.30
2023-05-30T05:55:40.479Z,3.80
2023-05-30T05:56:40.515Z,3.90
2023-05-30T05:57:40.482Z,4.10
2023-05-30T05:58:40.477Z,3.80
2023-05-30T05:59:40.433Z,3.50
2023-05-30T06:00:40.412Z,3.60
2023-05-30T06:01:40.400Z,3.10
2023-05-30T06:02:40.513Z,4.30
2023-05-30T06:03:40.563Z,3.70
2023-05-30T06:04:40.382Z,3.50
2023-05-30T06:05:40.361Z,3.50
2023-05-30T06:06:40.332Z,3.50
2023-05-30T06:07:40.338Z,3.40
2023-05-30T06:08:40.348Z,3.60
2023-05-30T06:09:40.343Z,3.40
2023-05-30T06:10:40.308Z,3.90
2023-05-30T06:11:40.265Z,4.30
2023-05-30T06:12:40.261Z,4.10
2023-05-30T06:13:40.236Z,4.10
2023-05-30T06:14:40.280Z,4.40
2023-05-30T06:15:40.319Z,4.70
2023-05-30T06:16:40.238Z,4.90
2023-05-30T06:17:40.236Z,5.10
2023-05-30T06:18:40.187Z,5.00
2023-05-30T06:19:40.157Z,4.90
2023-05-30T06:20:40.164Z,4.60
2023-05-30T06:21:40.235Z,4.00
2023-05-30T06:22:40.120Z,4.50
2023-05-30T06:23:40.135Z,4.10
2023-05-30T06:24:40.110Z,4.60
2023-05-30T06:25:40.090Z,4.40
2023-05-30T06:26:40.084Z,4.60
2023-05-30T06:27:40.122Z,4.30
2023-05-30T06:28:40.059Z,4.60
2023-05-30T06:29:40.037Z,5.00
2023-05-30T06:30:40.033Z,4.40
2023-05-30T06:31:40.037Z,5.20
2023-05-30T06:32:40.171Z,5.00
2023-05-30T06:33:40.004Z,5.40
2023-05-30T06:34:39.979Z,4.90
2023-05-30T06:35:39.964Z,5.80
2023-05-30T06:36:39.944Z,5.40
2023-05-30T06:37:39.930Z,5.30
2023-05-30T06:38:39.926Z,5.80
2023-05-30T06:39:40.320Z,5.00
2023-05-30T06:40:39.888Z,5.20
2023-05-30T06:41:39.890Z,4.90
2023-05-30T06:42:39.857Z,4.80
2023-05-30T06:43:39.878Z,4.60
2023-05-30T06:44:39.828Z,4.70
2023-05-30T06:45:39.838Z,4.50
2023-05-30T06:46:39.835Z,4.50
2023-05-30T06:47:39.909Z,5.90
2023-05-30T06:48:39.775Z,5.40
2023-05-30T06:49:39.781Z,5.50
2023-05-30T06:50:39.769Z,5.40
2023-05-30T06:51:39.951Z,6.10
2023-05-30T06:52:39.761Z,6.60
2023-05-30T06:53:39.712Z,5.70
2023-05-30T06:54:39.695Z,6.30
2023-05-30T06:55:39.715Z,6.30
2023-05-30T06:56:39.682Z,6.30
2023-05-30T06:57:39.686Z,6.30
2023-05-30T06:58:39.677Z,5.10
2023-05-30T06:59:39.629Z,5.10
2023-05-30T07:00:39.625Z,5.10
2023-05-30T07:01:39.638Z,6.00
2023-05-30T07:02:39.627Z,4.90
2023-05-30T07:03:39.614Z,5.70
2023-05-30T07:04:39.609Z,5.20
2023-05-30T07:05:39.556Z,5.90
2023-05-30T07:06:39.553Z,6.50
2023-05-30T07:07:39.539Z,6.60
2023-05-30T07:08:39.508Z,6.20
2023-05-30T07:09:39.524Z,6.50
2023-05-30T07:10:39.485Z,5.70
2023-05-30T07:11:39.484Z,6.30
2023-05-30T07:12:39.458Z,5.90
2023-05-30T07:13:39.463Z,5.70
2023-05-30T07:14:39.427Z,6.30
2023-05-30T07:15:39.440Z,6.40
2023-05-30T07:16:39.438Z,6.40
2023-05-30T07:17:39.425Z,6.70
2023-05-30T07:18:39.412Z,6.10
2023-05-30T07:19:39.383Z,5.20
2023-05-30T07:20:39.380Z,5.20
2023-05-30T07:21:39.442Z,5.60
2023-05-30T07:22:39.345Z,5.30
2023-05-30T07:23:39.317Z,5.10
2023-05-30T07:24:39.317Z,4.90
2023-05-30T07:25:39.306Z,5.50
2023-05-30T07:26:39.310Z,5.30
2023-05-30T07:27:39.329Z,5.10
2023-05-30T07:28:39.258Z,4.80
2023-05-30T07:29:39.264Z,5.10
2023-05-30T07:30:39.230Z,5.50
2023-05-30T07:31:39.272Z,4.70
2023-05-30T07:32:39.271Z,5.70
2023-05-30T07:33:39.221Z,5.20
2023-05-30T07:34:39.164Z,4.90
2023-05-30T07:35:39.170Z,5.30
2023-05-30T07:36:39.139Z,5.30
2023-05-30T07:37:39.152Z,5.20
2023-05-30T07:38:39.135Z,5.00
2023-05-30T07:39:39.138Z,5.40
2023-05-30T07:40:39.188Z,6.00
2023-05-30T07:41:39.080Z,6.20
2023-05-30T07:42:39.111Z,6.00
2023-05-30T07:43:39.136Z,6.60
2023-05-30T07:44:39.053Z,6.70
2023-05-30T07:45:41.190Z,6.70
2023-05-30T07:46:39.082Z,6.90
2023-05-30T07:47:39.053Z,5.60
2023-05-30T07:48:39.019Z,6.40
2023-05-30T07:49:38.999Z,5.30
2023-05-30T07:50:38.969Z,5.20
2023-05-30T07:51:39.008Z,5.20
2023-05-30T07:52:39.146Z,4.60
2023-05-30T07:53:38.971Z,5.00
2023-05-30T07:54:38.911Z,4.50
2023-05-30T07:55:38.905Z,4.60
2023-05-30T07:56:38.902Z,4.10
2023-05-30T07:57:38.905Z,4.40
2023-05-30T07:58:38.881Z,4.70
2023-05-30T07:59:38.856Z,4.40
2023-05-30T08:00:38.849Z,4.40
2023-05-30T08:01:38.817Z,4.30
2023-05-30T08:02:38.938Z,4.40
2023-05-30T08:03:39.135Z,4.50
2023-05-30T08:04:38.845Z,4.70
2023-05-30T08:05:38.774Z,5.60
2023-05-30T08:06:38.768Z,5.00
2023-05-30T08:07:40.038Z,5.00
2023-05-30T08:08:38.757Z,3.90
2023-05-30T08:09:38.715Z,4.60
2023-05-30T08:10:38.721Z,4.10
2023-05-30T08:11:38.693Z,4.50
2023-05-30T08:12:38.681Z,3.90
2023-05-30T08:13:38.695Z,4.00
2023-05-30T08:14:40.290Z,4.30
2023-05-30T08:15:38.642Z,4.10
2023-05-30T08:16:38.689Z,3.80
2023-05-30T08:17:38.729Z,3.70
2023-05-30T08:18:38.602Z,4.10
2023-05-30T08:19:38.614Z,3.70
2023-05-30T08:20:38.639Z,3.70
2023-05-30T08:21:38.578Z,3.90
2023-05-30T08:22:38.544Z,3.70
2023-05-30T08:23:38.550Z,3.70
2023-05-30T08:24:38.529Z,4.10
2023-05-30T08:25:38.582Z,3.80
2023-05-30T08:26:38.526Z,4.40
2023-05-30T08:27:38.505Z,4.40
2023-05-30T08:28:38.485Z,4.00
2023-05-30T08:29:38.459Z,4.50
2023-05-30T08:30:38.453Z,4.10
2023-05-30T08:31:38.633Z,4.50
2023-05-30T08:32:38.492Z,4.30
2023-05-30T08:33:38.415Z,4.20
2023-05-30T08:34:38.399Z,3.70
2023-05-30T08:35:38.388Z,4.10
2023-05-30T08:36:38.368Z,4.50
2023-05-30T08:37:38.409Z,4.20
2023-05-30T08:38:38.336Z,4.20
2023-05-30T08:39:38.389Z,4.80
2023-05-30T08:40:38.350Z,4.00
2023-05-30T08:41:38.327Z,4.00
2023-05-30T08:42:38.287Z,4.30
2023-05-30T08:43:38.481Z,4.80
2023-05-30T08:44:38.256Z,4.30
2023-05-30T08:45:38.262Z,4.30
2023-05-30T08:46:38.228Z,3.60
2023-05-30T08:47:38.237Z,3.10
2023-05-30T08:48:38.254Z,3.50
2023-05-30T08:49:38.184Z,3.70
2023-05-30T08:50:38.180Z,3.50
2023-05-30T08:51:38.156Z,3.40
2023-05-30T08:52:38.146Z,3.40
2023-05-30T08:53:38.400Z,3.40
2023-05-30T08:54:41.170Z,3.00
2023-05-30T08:55:38.114Z,3.40
2023-05-30T08:56:38.097Z,3.50
2023-05-30T08:57:43.904Z,3.70
2023-05-30T08:58:39.091Z,3.40
2023-05-30T08:59:38.058Z,3.40
2023-05-30T09:00:38.069Z,3.40
2023-05-30T09:01:38.068Z,3.20
2023-05-30T09:02:38.046Z,3.40
2023-05-30T09:03:38.092Z,3.20
2023-05-30T09:04:38.020Z,3.00
2023-05-30T09:05:37.970Z,3.10
2023-05-30T09:06:37.966Z,3.50
2023-05-30T09:07:37.956Z,3.30
2023-05-30T09:08:37.943Z,3.20
2023-05-30T09:09:37.921Z,3.70
2023-05-30T09:10:37.925Z,3.80
2023-05-30T09:11:37.900Z,3.90
2023-05-30T09:12:37.884Z,3.70
2023-05-30T09:13:37.913Z,3.30
2023-05-30T09:14:37.855Z,3.70
2023-05-30T09:15:37.872Z,3.10
2023-05-30T09:16:37.900Z,3.70
2023-05-30T09:17:37.829Z,4.00
2023-05-30T09:18:37.877Z,3.50
2023-05-30T09:19:37.782Z,3.70
2023-05-30T09:20:37.867Z,3.40
2023-05-30T09:21:37.798Z,3.30
2023-05-30T09:22:37.801Z,4.30
2023-05-30T09:23:37.817Z,3.60
2023-05-30T09:24:37.735Z,3.50
2023-05-30T09:25:37.721Z,2.90
2023-05-30T09:26:37.736Z,3.10
2023-05-30T09:27:37.685Z,3.00
2023-05-30T09:28:37.710Z,3.30
2023-05-30T09:29:37.664Z,3.20
2023-05-30T09:30:37.640Z,3.40
2023-05-30T09:31:37.642Z,3.30
2023-05-30T09:32:37.654Z,3.10
2023-05-30T09:33:37.634Z,3.60
2023-05-30T09:34:37.656Z,3.90
2023-05-30T09:35:37.579Z,3.30
2023-05-30T09:36:37.622Z,3.50
2023-05-30T09:37:37.565Z,3.40
2023-05-30T09:38:37.556Z,3.40
2023-05-30T09:39:37.553Z,3.60
2023-05-30T09:40:37.593Z,3.40
2023-05-30T09:41:37.555Z,3.30
2023-05-30T09:42:37.515Z,3.10
2023-05-30T09:43:37.479Z,3.40
2023-05-30T09:44:37.460Z,3.50
2023-05-30T09:45:37.457Z,3.50
2023-05-30T09:46:37.664Z,3.90
2023-05-30T09:47:37.562Z,3.10
2023-05-30T09:48:37.412Z,3.30
2023-05-30T09:49:37.437Z,3.50
2023-05-30T09:50:37.387Z,2.80
2023-05-30T09:51:37.371Z,2.90
2023-05-30T09:52:37.402Z,2.90
2023-05-30T09:53:37.354Z,3.00
2023-05-30T09:54:37.348Z,3.20
2023-05-30T09:55:37.318Z,3.20
2023-05-30T09:56:37.304Z,3.40
2023-05-30T09:57:37.307Z,3.50
2023-05-30T09:58:37.306Z,3.20
2023-05-30T09:59:37.285Z,3.30
2023-05-30T10:00:37.254Z,3.50
2023-05-30T10:01:37.266Z,3.60
2023-05-30T10:02:37.282Z,3.70
2023-05-30T10:03:37.313Z,3.40
2023-05-30T10:04:37.252Z,3.70
2023-05-30T10:05:37.193Z,3.80
2023-05-30T10:06:37.176Z,3.60
2023-05-30T10:07:37.168Z,3.80
2023-05-30T10:08:37.142Z,3.90
2023-05-30T10:09:37.134Z,3.30
2023-05-30T10:10:37.172Z,3.60
2023-05-30T10:11:37.115Z,3.80
2023-05-30T10:12:37.093Z,3.30
2023-05-30T10:13:37.076Z,3.50
2023-05-30T10:14:37.078Z,3.60
2023-05-30T10:15:37.067Z,4.00
2023-05-30T10:16:37.088Z,3.70
2023-05-30T10:17:37.062Z,3.50
2023-05-30T10:18:37.024Z,3.40
2023-05-30T10:19:37.009Z,3.60
2023-05-30T10:20:37.103Z,3.40
2023-05-30T10:21:36.967Z,3.50
2023-05-30T10:22:36.994Z,3.50
2023-05-30T10:23:36.949Z,3.10
2023-05-30T10:24:36.936Z,4.10
2023-05-30T10:25:36.931Z,3.50
2023-05-30T10:26:36.919Z,3.30
2023-05-30T10:27:36.897Z,3.50
2023-05-30T10:28:36.906Z,3.70
2023-05-30T10:29:36.871Z,3.00
2023-05-30T10:30:36.852Z,3.10
2023-05-30T10:31:36.899Z,3.40
2023-05-30T10:32:36.857Z,3.30
2023-05-30T10:33:56.374Z,3.40
2023-05-30T10:34:37.846Z,2.90
2023-05-30T10:35:37.054Z,2.80
2023-05-30T10:36:36.779Z,3.60
2023-05-30T10:37:36.800Z,3.10
2023-05-30T10:38:36.759Z,3.30
2023-05-30T10:39:36.742Z,3.80
2023-05-30T10:40:36.786Z,3.30
2023-05-30T10:41:46.071Z,3.40
2023-05-30T10:42:37.721Z,4.20
2023-05-30T10:43:36.694Z,3.00
2023-05-30T10:44:36.685Z,3.30
2023-05-30T10:45:36.661Z,3.60
2023-05-30T10:46:36.798Z,3.30
2023-05-30T10:47:36.657Z,3.40
2023-05-30T10:48:36.628Z,3.60
2023-05-30T10:49:36.638Z,3.50
2023-05-30T10:50:36.611Z,3.50
2023-05-30T10:51:36.577Z,4.10
2023-05-30T10:52:36.584Z,3.70
2023-05-30T10:53:36.559Z,3.30
2023-05-30T10:54:36.540Z,3.20
2023-05-30T10:55:36.563Z,3.50
2023-05-30T10:56:36.514Z,3.10
2023-05-30T10:57:36.505Z,3.90
2023-05-30T10:58:37.106Z,3.30
2023-05-30T10:59:36.476Z,3.60
2023-05-30T11:00:36.481Z,3.40
2023-05-30T11:01:36.530Z,3.90
2023-05-30T11:02:36.494Z,4.30
2023-05-30T11:03:36.499Z,3.60
2023-05-30T11:04:40.124Z,3.60
2023-05-30T11:05:37.397Z,3.00
2023-05-30T11:06:36.399Z,4.00
2023-05-30T11:07:36.410Z,3.80
2023-05-30T11:08:36.397Z,4.20
2023-05-30T11:09:36.387Z,3.80
2023-05-30T11:10:36.381Z,3.70
2023-05-30T11:11:36.360Z,3.40
2023-05-30T11:12:36.320Z,3.50
2023-05-30T11:13:36.299Z,3.70
2023-05-30T11:14:36.282Z,3.70
2023-05-30T11:15:36.285Z,3.50
2023-05-30T11:16:36.285Z,3.50
2023-05-30T11:17:36.294Z,3.40
2023-05-30T11:18:36.237Z,3.30
2023-05-30T11:19:36.231Z,3.10
2023-05-30T11:20:36.277Z,3.00
2023-05-30T11:21:36.230Z,3.30
2023-05-30T11:22:36.190Z,3.20
2023-05-30T11:23:36.162Z,3.60
2023-05-30T11:24:36.153Z,3.20
2023-05-30T11:25:36.159Z,3.60
2023-05-30T11:26:36.122Z,3.40
2023-05-30T11:27:36.140Z,4.00
2023-05-30T11:28:36.420Z,3.40
2023-05-30T11:29:36.082Z,3.10
2023-05-30T11:30:36.105Z,3.30
2023-05-30T11:31:36.135Z,3.40
2023-05-30T11:32:36.126Z,3.50
2023-05-30T11:33:36.033Z,2.90
2023-05-30T11:34:36.017Z,3.20
2023-05-30T11:35:36.008Z,3.50
2023-05-30T11:36:36.026Z,2.90
2023-05-30T11:37:35.976Z,2.90
2023-05-30T11:38:36.071Z,3.30
2023-05-30T11:39:35.958Z,3.10
2023-05-30T11:40:35.973Z,3.30
2023-05-30T11:41:35.920Z,2.90
2023-05-30T11:42:35.929Z,3.40
2023-05-30T11:43:35.901Z,3.50
2023-05-30T11:44:35.955Z,3.20
2023-05-30T11:45:35.877Z,3.80
2023-05-30T11:46:35.964Z,3.40
2023-05-30T11:47:45.530Z,3.30
2023-05-30T11:48:36.921Z,3.00
2023-05-30T11:49:35.825Z,2.50
2023-05-30T11:50:35.839Z,2.80
2023-05-30T11:51:35.800Z,3.00
2023-05-30T11:52:35.824Z,2.90
2023-05-30T11:53:35.779Z,2.70
2023-05-30T11:54:35.780Z,2.90
2023-05-30T11:55:35.753Z,2.80
2023-05-30T11:56:35.779Z,3.20
2023-05-30T11:57:35.728Z,2.90
2023-05-30T11:58:36.508Z,2.90
2023-05-30T11:59:35.707Z,3.20
2023-05-30T12:00:35.698Z,3.20
2023-05-30T12:01:35.688Z,3.40
2023-05-30T12:02:35.871Z,3.50
2023-05-30T12:03:35.691Z,3.20
2023-05-30T12:04:35.638Z,3.10
2023-05-30T12:05:35.707Z,2.90
2023-05-30T12:06:35.595Z,3.10
2023-05-30T12:07:35.600Z,2.80
2023-05-30T12:08:35.589Z,3.30
2023-05-30T12:09:35.578Z,2.80
2023-05-30T12:10:35.556Z,2.70
2023-05-30T12:11:35.536Z,3.00
2023-05-30T12:12:35.532Z,2.60
2023-05-30T12:13:35.528Z,2.60
2023-05-30T12:14:35.506Z,2.70
2023-05-30T12:15:35.478Z,2.80
2023-05-30T12:16:35.485Z,3.60
2023-05-30T12:17:35.601Z,2.50
2023-05-30T12:18:35.586Z,2.50
2023-05-30T12:19:35.423Z,2.60
2023-05-30T12:20:35.479Z,3.20
2023-05-30T12:21:35.427Z,3.10
2023-05-30T12:22:35.434Z,2.70
2023-05-30T12:23:35.430Z,2.70
2023-05-30T12:24:35.360Z,2.90
2023-05-30T12:25:35.350Z,2.80
2023-05-30T12:26:35.349Z,2.90
2023-05-30T12:27:35.335Z,3.00
2023-05-30T12:28:35.307Z,3.20
2023-05-30T12:29:35.323Z,2.70
2023-05-30T12:30:35.393Z,2.70
2023-05-30T12:31:35.287Z,2.40
2023-05-30T12:32:35.290Z,2.90
2023-05-30T12:33:35.246Z,2.60
2023-05-30T12:34:35.235Z,2.20
2023-05-30T12:35:35.236Z,2.90
2023-05-30T12:36:35.206Z,2.10
2023-05-30T12:37:35.223Z,2.70
2023-05-30T12:38:35.192Z,2.70
2023-05-30T12:39:35.178Z,2.50
2023-05-30T12:40:35.163Z,2.70
2023-05-30T12:41:35.206Z,2.40
2023-05-30T12:42:35.132Z,2.60
2023-05-30T12:43:35.136Z,3.10
2023-05-30T12:44:35.108Z,2.20
2023-05-30T12:45:35.102Z,2.70
2023-05-30T12:46:35.126Z,2.10
2023-05-30T12:47:35.129Z,2.70
2023-05-30T12:48:37.123Z,2.50
2023-05-30T12:49:35.036Z,2.40
2023-05-30T12:50:35.047Z,2.80
2023-05-30T12:51:35.020Z,2.50
2023-05-30T12:52:35.021Z,2.70
2023-05-30T12:53:35.036Z,2.30
2023-05-30T12:54:35.044Z,2.20
2023-05-30T12:55:35.001Z,2.50
2023-05-30T12:56:34.969Z,2.00
2023-05-30T12:57:34.964Z,2.40
2023-05-30T12:58:34.912Z,2.40
2023-05-30T12:59:34.946Z,2.30
2023-05-30T13:00:36.117Z,2.20
2023-05-30T13:01:34.907Z,2.10
2023-05-30T13:02:34.914Z,2.10
2023-05-30T13:03:34.914Z,2.40
2023-05-30T13:04:34.881Z,2.30
2023-05-30T13:05:34.882Z,2.50
2023-05-30T13:06:34.806Z,2.50
2023-05-30T13:07:34.809Z,2.50
2023-05-30T13:08:34.800Z,2.40
2023-05-30T13:09:34.817Z,2.10
2023-05-30T13:10:34.777Z,2.40
2023-05-30T13:11:34.767Z,2.40
2023-05-30T13:12:34.733Z,2.20
2023-05-30T13:13:34.735Z,2.20
2023-05-30T13:14:34.707Z,2.40
2023-05-30T13:15:34.690Z,2.60
2023-05-30T13:16:38.415Z,2.40
2023-05-30T13:17:35.735Z,2.00
2023-05-30T13:18:34.671Z,2.10